VECCVEGY

Guest
Details From VECC - NETAJI SUBHASH CHANDRA BOSE INTL
To VEGY - GAYA
Flight Number -
Tags generated
Created
Modified
Stats Distance 230 nm / 425 km
Max Altitude 0 ft / 0 m
Waypoints 2
Social Downloads 0
Likes 0
Share

Download

Looking for another format? Having issues loading an existing format? Contact us
Advertisement - Login to hide

Notes

Basic altitude profile: - Ascent Rate: 700ft/min - Ascent Speed: 110kts - Cruise Altitude: 9000ft - Cruise Speed: 140kts - Descent Rate: 600ft/min - Descent Speed: 130kts Options: - Use NATs: no - Use PACOTS: no - Use low airways: no - Use high airways: no

Route

VECC VEGY

ID Type Via Altitude (ft/m) Position (lat/lon) Dist (leg/tot) Name
O VECC APT - 0 / 0 22.65562 / 88.44686 - / 0 nm NETAJI SUBHASH CHANDRA BOSE INTL
O VEGY APT - 0 / 0 24.74431 / 84.95118 229 / 229 nm GAYA

Altitude Profile

Advertisement - Login to hide

Weather


0- 5 10 15 20 25 30 35+ Temperature / °C

Clouds and Precipitation
Forecast for 2020-08-07 06:00 UTC. Updated 5 hours ago

Ground ~20,000 ft ~40,000 ft Winds

VECC

Details ICAO VECC (CCU)
Name Kolkata Intl
Region India
Timezone Asia/Kolkata (UTC+5.5)
Stats Elevation 22 ft / 7 m (AMSL)
Location 22.654800° 88.446700°
Runways 2
Magnetic Variation 0.103° W

METAR

VECC 070830Z 16009KT 4000 HZ SCT018 SCT025 34/30 Q1000 NOSIG

Decode

TAF

TAF VECC 070500Z 0706/0812 18007KT 4000 HZ SCT018 BKN100 PROB40 TEMPO 0708/0712 2000 TSRA SCT015 FEW025CB OVC090 BECMG 0722/0724 00000KT 2800 -RA HZ BECMG 0803/0805 19005KT 4000 HZ PROB40 TEMPO 0808/0812 2000 TSRA SCT015 FEW025CB OVC090

Decode

Departure Runways

ID Width Length Bearing (true/mag) Surface Threshold Overrun Markings Lighting
01L 148 ft / 45 m 10,771 ft / 3,283 m 6.21° / 6.31° ASPHALT 1,450 ft / 442 m 0 ft / 0 m PREC-APP EDGE THRESHOLD MALS TDZ
01R 148 ft / 45 m 11,970 ft / 3,648 m 6.21° / 6.31° ASPHALT 0 ft / 0 m 213 ft / 65 m PREC-APP EDGE THRESHOLD ALSF-I TDZ
19L 148 ft / 45 m 11,970 ft / 3,648 m 186.21° / 186.31° ASPHALT 1,411 ft / 430 m 469 ft / 143 m PREC-APP EDGE THRESHOLD ALSF-II TDZ
19R 148 ft / 45 m 10,771 ft / 3,283 m 186.21° / 186.32° ASPHALT 292 ft / 89 m 0 ft / 0 m PREC-APP EDGE THRESHOLD ALSF-I TDZ

VEGY

Details ICAO VEGY (GAY)
Name Gaya Airport
Region India
Timezone Asia/Kolkata (UTC+5.5)
Stats Elevation 379 ft / 116 m (AMSL)
Location 24.744100° 84.950600°
Runways 1
Magnetic Variation 0.293° E

METAR

VEGY 070830Z 28008KT 2500 BR FEW010 SCT018 FEW030CB BKN100 29/26 Q1000 TEMPO 1500 TSRA

Decode

TAF

Not found

Destination Runways

ID Width Length Bearing (true/mag) Surface Threshold Overrun Markings Lighting
10 148 ft / 45 m 7,507 ft / 2,288 m 103.77° / 103.47° ASPHALT 0 ft / 0 m 0 ft / 0 m PREC-APP CENTERLINE EDGE THRESHOLD REIL-UNI
28 148 ft / 45 m 7,507 ft / 2,288 m 283.78° / 283.48° ASPHALT 246 ft / 75 m 0 ft / 0 m PREC-APP CENTERLINE EDGE THRESHOLD REIL-UNI

Popular Alternatives